Grafton, IL (62037)

9:42 PM CDT on August 29, 2015 (GMT -0500)
Polestar Boating Center | | Change Station
CLOSE
Current Station
Personal Weather Station
Location: St. Charles, MO
Elevation: 449 ft
Nearby Weather Stations

Elev 449 ft 38.93 °N, 90.47 °W | Updated 21 seconds ago

Mostly Cloudy
Mostly Cloudy
75.1 °F
Feels Like 75 °F
N
0.0
Wind Variable Wind from North
Gusts 0.0 mph

Today
High -- | Low -- °F
--% Chance of Precip.
Yesterday
High -- | Low -- °F
Precip. -- in
6:27 AM 7:37 PM
Full, 100% visible
Pressure 29.99 in
Visibility 10.0 miles
Clouds Few 2500 ft
Scattered Clouds 8000 ft
Heat Index 75 °F
Dew Point 71 °F
Humidity 86%
Rainfall in
Snow Depth Not available.
UV 0 out of 12
Pollen 10.20 out of 12
Air Quality Not available.
Flu Activity Not available.
METAR KSET 300154Z AUTO 00000KT 10SM FEW025 SCT080 24/21 A3000 RMK AO2 SLP154 T02390211
Pressure 29.99 in
Visibility 10.0 miles
Clouds Few 2500 ft
Scattered Clouds 8000 ft
Heat Index 75 °F
Dew Point 71 °F
Humidity 86%
Rainfall in
Snow Depth Not available.
UV 0 out of 12
Pollen 10.20 out of 12
Air Quality Not available.
Flu Activity Not available.
METAR KSET 300154Z AUTO 00000KT 10SM FEW025 SCT080 24/21 A3000 RMK AO2 SLP154 T02390211

10-Day Weather Forecast

×

Almanac

Astronomy

Aug. 29, 2015 Rise Set
Actual Time
Civil Twilight
Nautical Twilight
Astronomical Twilight
Moon
Length of Visible Light
Length of Day
Tomorrow will be .
, % of the Moon is Illuminated

Today's Extremes

State Highs State Lows

Community

WunderPhotos

Upload Photos

1,850,855 photos uploaded!

WunderBlogs® & News

Nearby

Air Quality

  Air Quality AQ Index Pollutant
Not available.

Snow Depth

Station Depth Elevation

Earthquake Activity

City Distance Mag. Time & Date
Minimum magnitude displayed is 2.5.

Coastal Water Temperatures

Place Temperature

Stations

Nearby Weather Stations

Station Location Temp. Windchill Dew Point Humidity Wind Precip. Elev Updated Type